Marie Louise — FGA7534 — position and weather

sailwx.info

Track history (hours):
 
Tides and Currents Weather Stations Pressure Air Temp Water Temp Dewpoint Dewpoint Depression Visibility Wind Speed Wind Dir Waves Ship Positions

Marie Louise

Last reported at 2017-Sep-18 18:33 UTC. Time now 2017-Sep-24 14:24 UTC.
Position N 38°03' W 009°30'.

Length 12 m.

Type: Sailing vessel. MMSI: 227540290.

Date/timePositionNaut miles runAvg speedWind from/ knotsBaromVisibWave heightAir tempDewpointWater temp
2017-Sep-18 18:33N 38°03' W 009°30'8 6.4
2017-Sep-18 17:19N 38°11' W 009°27'2 6.4
2017-Sep-18 16:58N 38°13' W 009°27'13 6.4
2017-Sep-18 15:00N 38°26' W 009°26'3 6.1
2017-Sep-18 14:30N 38°29' W 009°26'3 6.7
2017-Sep-18 14:00N 38°32' W 009°26'3 6.7
2017-Sep-18 13:30N 38°35' W 009°26'3 6.6
2017-Sep-18 13:00N 38°39' W 009°26'3 5.3
2017-Sep-18 12:30N 38°41' W 009°25'1 0.0
2017-Sep-17 19:16N 38°42' W 009°25'0 0.0
2017-Sep-17 18:58N 38°42' W 009°25'0 0.0
2017-Sep-17 18:28N 38°42' W 009°25'0 0.0
2017-Sep-17 17:58N 38°42' W 009°25'0 0.2
2017-Sep-17 17:30N 38°42' W 009°25'2 3.7
2017-Sep-17 16:59N 38°41' W 009°23'2 4.1
2017-Sep-17 16:30N 38°39' W 009°23'2 4.1
2017-Sep-17 16:00N 38°39' W 009°21'4 7.5
2017-Sep-17 15:30N 38°41' W 009°16'4 7.4
2017-Sep-17 15:00N 38°41' W 009°12'  
2017-Sep-13 15:13N 38°42' W 009°11'1 6.3
2017-Sep-13 15:00N 38°41' W 009°13'3 5.3
2017-Sep-13 14:30N 38°41' W 009°16'2 4.8
2017-Sep-13 13:59N 38°40' W 009°19'3 5.3
2017-Sep-13 13:25N 38°41' W 009°23'2 3.3
2017-Sep-13 12:50N 38°42' W 009°25'0 0.0
2017-Sep-13 12:20N 38°42' W 009°25'0 0.0
2017-Sep-13 11:56N 38°42' W 009°25'0 0.0
2017-Sep-13 11:11N 38°42' W 009°25'0 0.0
2017-Sep-13 10:56N 38°42' W 009°25'0 0.0
2017-Sep-13 10:23N 38°42' W 009°25'0 0.0
2017-Sep-13 09:53N 38°42' W 009°25'0 0.0
2017-Sep-13 09:29N 38°42' W 009°25'1 1.6
2017-Sep-13 08:59N 38°41' W 009°25'2 4.6
2017-Sep-13 08:30N 38°41' W 009°28'6 5.1
2017-Sep-13 07:23N 38°45' W 009°33'2 6.1
2017-Sep-13 07:00N 38°47' W 009°34'3 6.2
2017-Sep-13 06:30N 38°50' W 009°35'3 5.3
2017-Sep-13 06:00N 38°52' W 009°35'3 5.0
2017-Sep-13 05:30N 38°55' W 009°36'3 5.5
2017-Sep-13 05:00N 38°58' W 009°36'3 5.6
2017-Sep-13 04:29N 39°00' W 009°37'2 4.8
2017-Sep-13 03:58N 39°03' W 009°36'3 5.4
2017-Sep-13 03:30N 39°05' W 009°35'  
Track history (hours):
 
Tides and Currents Weather Stations Pressure Air Temp Water Temp Dewpoint Dewpoint Depression Visibility Wind Speed Wind Dir Waves Ship Positions

Marie Louise

Last reported at 2017-Sep-18 18:33 UTC. Time now 2017-Sep-24 14:24 UTC.
Position N 38°03' W 009°30'.

Length 12 m.

Type: Sailing vessel. MMSI: 227540290.

Date/timePositionNaut miles runAvg speedWind from/ knotsBaromVisibWave heightAir tempDewpointWater temp
2017-Sep-18 18:33N 38°03' W 009°30'8 6.4
2017-Sep-18 17:19N 38°11' W 009°27'2 6.4
2017-Sep-18 16:58N 38°13' W 009°27'13 6.4
2017-Sep-18 15:00N 38°26' W 009°26'3 6.1
2017-Sep-18 14:30N 38°29' W 009°26'3 6.7
2017-Sep-18 14:00N 38°32' W 009°26'3 6.7
2017-Sep-18 13:30N 38°35' W 009°26'3 6.6
2017-Sep-18 13:00N 38°39' W 009°26'3 5.3
2017-Sep-18 12:30N 38°41' W 009°25'1 0.0
2017-Sep-17 19:16N 38°42' W 009°25'0 0.0
2017-Sep-17 18:58N 38°42' W 009°25'0 0.0
2017-Sep-17 18:28N 38°42' W 009°25'0 0.0
2017-Sep-17 17:58N 38°42' W 009°25'0 0.2
2017-Sep-17 17:30N 38°42' W 009°25'2 3.7
2017-Sep-17 16:59N 38°41' W 009°23'2 4.1
2017-Sep-17 16:30N 38°39' W 009°23'2 4.1
2017-Sep-17 16:00N 38°39' W 009°21'4 7.5
2017-Sep-17 15:30N 38°41' W 009°16'4 7.4
2017-Sep-17 15:00N 38°41' W 009°12'  
2017-Sep-13 15:13N 38°42' W 009°11'1 6.3
2017-Sep-13 15:00N 38°41' W 009°13'3 5.3
2017-Sep-13 14:30N 38°41' W 009°16'2 4.8
2017-Sep-13 13:59N 38°40' W 009°19'3 5.3
2017-Sep-13 13:25N 38°41' W 009°23'2 3.3
2017-Sep-13 12:50N 38°42' W 009°25'0 0.0
2017-Sep-13 12:20N 38°42' W 009°25'0 0.0
2017-Sep-13 11:56N 38°42' W 009°25'0 0.0
2017-Sep-13 11:11N 38°42' W 009°25'0 0.0
2017-Sep-13 10:56N 38°42' W 009°25'0 0.0
2017-Sep-13 10:23N 38°42' W 009°25'0 0.0
2017-Sep-13 09:53N 38°42' W 009°25'0 0.0
2017-Sep-13 09:29N 38°42' W 009°25'1 1.6
2017-Sep-13 08:59N 38°41' W 009°25'2 4.6
2017-Sep-13 08:30N 38°41' W 009°28'6 5.1
2017-Sep-13 07:23N 38°45' W 009°33'2 6.1
2017-Sep-13 07:00N 38°47' W 009°34'3 6.2
2017-Sep-13 06:30N 38°50' W 009°35'3 5.3
2017-Sep-13 06:00N 38°52' W 009°35'3 5.0
2017-Sep-13 05:30N 38°55' W 009°36'3 5.5
2017-Sep-13 05:00N 38°58' W 009°36'3 5.6
2017-Sep-13 04:29N 39°00' W 009°37'2 4.8
2017-Sep-13 03:58N 39°03' W 009°36'3 5.4
2017-Sep-13 03:30N 39°05' W 009°35'  

Dump ship's entire track history